Time;durP1;ratioP1;P1;durP2;ratioP2;P2;SDS_P1;SDS_P2;PMS_P1;PMS_P2;Temp;Humidity;BMP_temperature;BMP_pressure;BME280_temperature;BME280_humidity;BME280_pressure;Samples;Min_cycle;Max_cycle;Signal;HPM_P1;HPM_P2
2021/05/02 00:01:29;;;;;;;11.03;5.03;;;;;;;20.51;63.58;94397.53;5072838;28;20505;-76
2021/05/02 00:03:55;;;;;;;10.90;3.93;;;;;;;20.50;63.84;94409.25;5073348;28;20508;-76
2021/05/02 00:06:22;;;;;;;9.90;4.53;;;;;;;20.52;63.79;94409.03;5073345;28;20842;-76
2021/05/02 00:08:48;;;;;;;7.37;4.50;;;;;;;20.46;64.68;94401.84;5073216;28;21001;-75
2021/05/02 00:11:14;;;;;;;9.60;4.20;;;;;;;20.32;64.50;94393.81;5072717;28;21005;-76
2021/05/02 00:13:41;;;;;;;14.67;4.47;;;;;;;20.34;64.38;94397.09;5072924;28;20438;-76
2021/05/02 00:16:08;;;;;;;14.37;4.30;;;;;;;20.34;64.60;94386.44;5073088;28;20447;-76
2021/05/02 00:18:37;;;;;;;8.50;3.70;;;;;;;19.96;65.39;94375.50;5072883;28;20461;-76
2021/05/02 00:21:08;;;;;;;9.50;4.50;;;;;;;20.01;65.78;94377.53;5072885;28;20457;-75
2021/05/02 00:23:36;;;;;;;6.83;3.87;;;;;;;20.05;66.03;94371.59;5072771;28;20443;-75
2021/05/02 00:26:04;;;;;;;9.80;4.30;;;;;;;20.10;65.71;94357.69;5073143;28;20501;-76
2021/05/02 00:28:33;;;;;;;8.27;4.27;;;;;;;20.13;65.42;94362.59;5070629;28;20487;-75
2021/05/02 00:31:04;;;;;;;11.77;4.00;;;;;;;20.15;64.99;94363.22;5072679;28;20440;-76
2021/05/02 00:33:31;;;;;;;16.00;5.43;;;;;;;20.18;64.78;94378.81;5038688;28;20523;-76
2021/05/02 00:36:00;;;;;;;7.83;4.63;;;;;;;20.19;64.50;94352.97;5072036;28;21136;-75
2021/05/02 00:38:27;;;;;;;14.40;5.23;;;;;;;20.22;64.49;94355.25;5072886;28;20455;-77
2021/05/02 00:40:56;;;;;;;13.37;4.80;;;;;;;20.24;63.95;94350.53;5053852;28;21142;-75
2021/05/02 00:43:31;;;;;;;9.97;5.03;;;;;;;20.23;63.67;94344.38;5072676;28;20505;-76
2021/05/02 00:46:02;;;;;;;9.20;4.23;;;;;;;20.22;63.77;94350.72;5072484;28;20533;-76
2021/05/02 00:48:35;;;;;;;12.67;4.57;;;;;;;20.25;64.05;94354.84;5073011;28;20922;-75
2021/05/02 00:51:05;;;;;;;8.23;4.10;;;;;;;20.22;63.92;94349.91;5072443;28;20450;-76
2021/05/02 00:53:45;;;;;;;8.90;4.00;;;;;;;20.24;63.78;94332.72;5072831;28;20448;-75
2021/05/02 00:56:17;;;;;;;7.30;4.37;;;;;;;20.25;64.30;94334.38;5072528;28;20467;-75
2021/05/02 00:58:54;;;;;;;6.60;4.30;;;;;;;20.28;64.29;94330.47;5072260;28;20454;-76
2021/05/02 01:01:23;;;;;;;17.00;4.73;;;;;;;20.26;63.77;94321.88;5072373;28;20525;-76
2021/05/02 01:03:50;;;;;;;10.60;5.03;;;;;;;20.25;63.75;94315.72;5072217;28;20458;-76
2021/05/02 01:06:25;;;;;;;13.03;4.10;;;;;;;20.25;63.53;94310.38;5072266;28;20444;-76
2021/05/02 01:08:56;;;;;;;6.13;4.67;;;;;;;20.24;63.45;94306.09;5072575;28;21025;-76
2021/05/02 01:11:26;;;;;;;12.40;4.70;;;;;;;20.23;62.95;94300.94;5072681;28;20607;-76
2021/05/02 01:13:54;;;;;;;10.70;4.50;;;;;;;20.18;62.44;94295.38;5072243;28;20456;-76
2021/05/02 01:16:27;;;;;;;15.37;4.33;;;;;;;20.13;62.42;94301.34;5053436;28;20993;-76
2021/05/02 01:18:55;;;;;;;14.83;4.40;;;;;;;20.12;62.07;94291.69;5072412;28;20449;-76
2021/05/02 01:21:30;;;;;;;9.70;4.80;;;;;;;20.09;61.82;94281.47;5072257;28;20444;-76
2021/05/02 01:23:58;;;;;;;11.30;5.17;;;;;;;20.15;61.73;94291.28;5071896;28;20444;-76
2021/05/02 01:26:26;;;;;;;11.33;4.77;;;;;;;20.02;62.19;94292.09;5072156;28;20467;-76
2021/05/02 01:28:54;;;;;;;6.33;4.00;;;;;;;20.10;61.78;94296.41;5072204;28;20445;-76
2021/05/02 01:31:21;;;;;;;15.33;3.80;;;;;;;20.16;61.80;94302.78;5072117;28;20855;-75
2021/05/02 01:33:47;;;;;;;10.73;4.67;;;;;;;20.19;61.91;94302.34;5053431;28;20444;-76
2021/05/02 01:36:14;;;;;;;16.07;6.93;;;;;;;20.22;61.98;94284.13;5053092;28;20989;-75
2021/05/02 01:38:43;;;;;;;18.57;4.90;;;;;;;20.27;62.10;94278.22;5072236;28;20488;-76
2021/05/02 01:41:10;;;;;;;9.97;5.00;;;;;;;20.21;61.71;94263.84;5071807;28;20457;-76
2021/05/02 01:43:37;;;;;;;9.03;5.37;;;;;;;20.23;61.96;94258.28;5072063;28;20575;-75
2021/05/02 01:46:04;;;;;;;16.30;4.80;;;;;;;20.25;62.48;94274.94;5071783;28;20453;-76
2021/05/02 01:48:34;;;;;;;7.70;4.50;;;;;;;20.22;62.07;94267.31;5071200;28;20440;-76
2021/05/02 01:51:03;;;;;;;13.23;5.40;;;;;;;20.24;62.09;94279.44;5074952;28;20455;-75
2021/05/02 01:53:31;;;;;;;14.90;4.90;;;;;;;20.24;62.26;94289.25;5075251;28;20818;-76
2021/05/02 01:56:00;;;;;;;9.47;4.33;;;;;;;19.79;62.72;94271.16;5074792;28;20783;-75
2021/05/02 01:58:28;;;;;;;14.83;4.97;;;;;;;19.93;62.20;94279.97;5074922;28;20958;-75
2021/05/02 02:00:56;;;;;;;12.57;5.70;;;;;;;20.04;62.40;94283.91;5074579;28;20435;-75
2021/05/02 02:03:23;;;;;;;9.00;4.60;;;;;;;19.84;62.54;94270.56;5074631;28;20456;-75
2021/05/02 02:05:50;;;;;;;12.57;5.30;;;;;;;19.93;63.03;94276.50;5074444;28;20450;-76
2021/05/02 02:08:18;;;;;;;7.60;4.63;;;;;;;19.93;63.19;94274.66;5074743;28;20448;-75
2021/05/02 02:10:46;;;;;;;8.93;4.83;;;;;;;19.97;63.15;94283.09;5074850;28;20824;-75
2021/05/02 02:13:15;;;;;;;13.17;4.87;;;;;;;19.84;64.00;94277.72;5074843;28;20452;-75
2021/05/02 02:15:43;;;;;;;16.53;5.43;;;;;;;19.87;64.00;94298.63;5074918;28;20449;-75
2021/05/02 02:18:11;;;;;;;10.33;5.50;;;;;;;19.85;63.86;94276.69;5074725;28;20495;-75
2021/05/02 02:20:41;;;;;;;19.13;5.50;;;;;;;19.77;64.37;94289.19;5074893;28;20962;-76
2021/05/02 02:23:13;;;;;;;15.20;5.23;;;;;;;19.68;64.33;94285.06;5074648;28;20816;-75
2021/05/02 02:25:42;;;;;;;15.43;4.70;;;;;;;19.66;65.10;94307.56;5074838;28;20951;-74
2021/05/02 02:28:12;;;;;;;12.07;5.27;;;;;;;19.59;65.49;94323.50;5074965;28;20450;-75
2021/05/02 02:30:41;;;;;;;9.50;5.03;;;;;;;19.64;65.81;94298.97;5074739;28;20454;-75
2021/05/02 02:33:08;;;;;;;10.33;4.90;;;;;;;19.63;65.87;94315.94;5074356;28;20454;-75
2021/05/02 02:35:40;;;;;;;12.43;5.53;;;;;;;19.51;66.50;94305.03;5074927;28;20457;-75
2021/05/02 02:38:09;;;;;;;10.30;5.40;;;;;;;19.47;66.75;94301.97;5074259;28;20481;-75
2021/05/02 02:40:37;;;;;;;13.83;5.50;;;;;;;19.26;67.74;94317.19;5074478;28;20938;-75
2021/05/02 02:43:04;;;;;;;14.03;5.97;;;;;;;19.28;67.38;94310.66;5074488;28;20444;-75
2021/05/02 02:45:34;;;;;;;14.80;5.20;;;;;;;18.80;70.64;94305.28;5072408;28;20525;-75
2021/05/02 02:48:02;;;;;;;9.30;4.90;;;;;;;18.63;72.21;94293.31;5074338;28;20441;-76
2021/05/02 02:50:31;;;;;;;8.60;4.70;;;;;;;18.26;75.25;94289.09;5072240;28;20494;-75
2021/05/02 02:53:03;;;;;;;12.10;4.20;;;;;;;18.44;75.05;94292.09;5038759;28;20435;-75
2021/05/02 02:55:31;;;;;;;12.90;6.37;;;;;;;18.49;75.92;94286.19;5074120;28;20944;-76
2021/05/02 02:57:59;;;;;;;11.53;5.20;;;;;;;18.52;76.08;94289.31;5073936;28;20482;-75
2021/05/02 03:00:27;;;;;;;12.03;4.77;;;;;;;18.64;76.12;94296.78;5073616;28;20496;-75
2021/05/02 03:02:56;;;;;;;9.13;5.10;;;;;;;18.73;75.50;94292.94;5074014;28;20979;-75
2021/05/02 03:05:24;;;;;;;11.93;5.70;;;;;;;18.74;75.63;94305.22;5074300;28;20448;-75
2021/05/02 03:07:53;;;;;;;16.33;5.93;;;;;;;18.81;75.00;94301.63;5074085;28;20440;-75
2021/05/02 03:10:20;;;;;;;8.37;4.70;;;;;;;18.85;74.40;94296.72;5038336;28;20569;-75
2021/05/02 03:12:49;;;;;;;16.63;5.97;;;;;;;18.84;74.29;94289.78;5073745;28;20461;-75
2021/05/02 03:15:16;;;;;;;14.00;6.07;;;;;;;18.89;74.18;94282.03;5073629;28;20449;-76
2021/05/02 03:17:47;;;;;;;16.63;6.10;;;;;;;18.98;73.40;94277.38;5073595;28;20499;-75
2021/05/02 03:20:16;;;;;;;7.97;4.73;;;;;;;19.04;72.97;94277.38;5073877;28;20863;-75
2021/05/02 03:22:49;;;;;;;18.93;5.60;;;;;;;19.00;73.18;94270.81;5073721;28;20789;-75
2021/05/02 03:25:23;;;;;;;16.23;5.77;;;;;;;18.89;72.86;94292.66;5055220;28;20448;-75
2021/05/02 03:27:54;;;;;;;20.57;5.50;;;;;;;18.56;74.03;94289.75;5073523;28;20437;-75
2021/05/02 03:30:23;;;;;;;15.90;6.77;;;;;;;18.50;74.17;94287.84;5073652;28;20824;-77
2021/05/02 03:32:52;;;;;;;10.83;5.60;;;;;;;18.56;75.21;94303.03;5074330;28;20783;-78
2021/05/02 03:35:20;;;;;;;14.97;5.67;;;;;;;18.50;74.54;94283.38;5074136;28;20429;-77
2021/05/02 03:37:50;;;;;;;15.70;7.40;;;;;;;18.24;77.57;94297.28;5074147;28;20513;-78
2021/05/02 03:40:17;;;;;;;17.55;7.13;;;;;;;18.34;79.08;94314.72;5073346;28;20477;-75
2021/05/02 03:42:44;;;;;;;12.20;5.37;;;;;;;18.52;78.64;94315.91;5054745;28;20207;-75
2021/05/02 03:45:11;;;;;;;13.30;6.00;;;;;;;18.65;78.38;94317.03;5073699;28;20449;-75
2021/05/02 03:47:37;;;;;;;15.30;5.07;;;;;;;18.80;77.75;94305.28;5073298;28;20455;-75
2021/05/02 03:50:06;;;;;;;14.47;6.07;;;;;;;18.75;77.93;94304.22;5073546;28;20444;-76
2021/05/02 03:52:32;;;;;;;7.50;4.97;;;;;;;18.84;78.00;94297.75;5073410;28;20458;-76
2021/05/02 03:54:59;;;;;;;12.37;6.57;;;;;;;18.87;77.92;94313.31;5073305;28;20937;-75
2021/05/02 03:57:26;;;;;;;18.03;5.40;;;;;;;18.90;77.56;94307.59;5073130;28;20480;-76
2021/05/02 03:59:52;;;;;;;14.27;5.30;;;;;;;18.82;78.03;94300.59;5073035;28;20498;-75
2021/05/02 04:02:19;;;;;;;21.03;5.47;;;;;;;19.09;77.62;94314.88;5072763;28;20926;-75
2021/05/02 04:04:45;;;;;;;14.97;5.60;;;;;;;19.38;76.41;94307.66;5073112;28;20456;-75
2021/05/02 04:07:14;;;;;;;15.50;6.17;;;;;;;19.44;74.59;94293.56;5072942;28;20865;-75
2021/05/02 04:09:42;;;;;;;21.27;6.40;;;;;;;19.58;73.57;94308.56;5053536;28;20443;-76
2021/05/02 04:12:09;;;;;;;15.63;5.83;;;;;;;19.68;73.32;94316.19;5072788;28;20481;-77
2021/05/02 04:14:37;;;;;;;17.33;6.40;;;;;;;19.75;72.92;94311.72;5073095;28;20457;-74
2021/05/02 04:17:04;;;;;;;14.33;5.57;;;;;;;19.77;73.22;94309.66;5053536;28;21192;-74
2021/05/02 04:19:32;;;;;;;12.13;5.57;;;;;;;19.79;73.46;94295.13;5072437;28;20460;-74
2021/05/02 04:21:58;;;;;;;17.07;5.30;;;;;;;19.66;73.41;94281.78;5072649;28;20823;-74
2021/05/02 04:24:25;;;;;;;11.87;5.23;;;;;;;19.62;74.09;94283.19;5070198;28;20442;-74
2021/05/02 04:26:54;;;;;;;12.60;5.93;;;;;;;19.59;73.99;94283.59;5072461;28;20997;-74
2021/05/02 04:29:20;;;;;;;11.47;5.10;;;;;;;19.72;72.96;94286.31;5072274;28;20446;-74
2021/05/02 04:31:47;;;;;;;10.80;5.33;;;;;;;20.02;71.95;94288.63;5072445;28;20446;-74
2021/05/02 04:34:14;;;;;;;16.67;6.27;;;;;;;20.33;72.04;94307.50;5072306;28;20455;-74
2021/05/02 04:36:40;;;;;;;12.57;6.20;;;;;;;20.61;70.53;94303.88;5072237;28;20490;-74
2021/05/02 04:39:06;;;;;;;16.23;6.23;;;;;;;20.65;70.76;94279.25;5072032;28;20451;-74
2021/05/02 04:41:33;;;;;;;13.50;6.60;;;;;;;20.74;71.34;94293.16;5072212;28;20451;-75
2021/05/02 04:43:59;;;;;;;11.77;6.37;;;;;;;21.17;75.24;94295.38;5071520;28;20502;-76
2021/05/02 04:46:26;;;;;;;14.53;6.50;;;;;;;21.39;70.78;94288.72;5071708;28;20462;-75
2021/05/02 04:48:54;;;;;;;9.63;6.17;;;;;;;21.86;67.84;94287.50;5072431;28;20437;-75
2021/05/02 04:51:20;;;;;;;9.53;6.60;;;;;;;22.40;66.40;94285.34;5072460;28;20441;-75
2021/05/02 04:53:48;;;;;;;17.27;10.80;;;;;;;23.20;64.12;94302.34;5072669;28;20453;-75
2021/05/02 04:56:14;;;;;;;21.63;7.10;;;;;;;23.99;60.39;94309.44;5072317;28;20450;-75
2021/05/02 04:58:42;;;;;;;9.03;6.20;;;;;;;24.65;60.28;94311.22;5072482;28;20492;-75
2021/05/02 05:01:08;;;;;;;14.07;6.30;;;;;;;25.12;56.75;94286.28;5036624;28;21125;-74
2021/05/02 05:03:35;;;;;;;7.13;4.87;;;;;;;25.13;53.81;94280.66;5072444;28;20446;-75
2021/05/02 05:06:02;;;;;;;11.10;6.50;;;;;;;25.48;52.84;94271.78;5071946;28;20919;-75
2021/05/02 05:08:28;;;;;;;13.93;3.93;;;;;;;25.67;51.06;94264.38;5072282;28;20439;-75
2021/05/02 05:10:55;;;;;;;12.50;5.00;;;;;;;25.75;51.82;94258.66;5069623;28;20843;-75
2021/05/02 05:13:21;;;;;;;11.40;6.40;;;;;;;25.88;50.44;94261.84;5072268;28;20510;-80
2021/05/02 05:15:47;;;;;;;18.93;4.63;;;;;;;25.87;50.13;94267.47;5071849;28;20451;-74
2021/05/02 05:18:20;;;;;;;12.40;4.20;;;;;;;25.94;49.51;94260.06;5069762;28;20990;-76
2021/05/02 05:20:46;;;;;;;16.93;5.10;;;;;;;25.47;52.11;94257.53;5072794;28;20474;-78
2021/05/02 05:23:13;;;;;;;9.27;4.90;;;;;;;25.24;50.88;94262.94;5075774;28;20451;-77
2021/05/02 05:25:39;;;;;;;12.23;4.67;;;;;;;25.02;52.02;94258.16;5076193;28;20451;-75
2021/05/02 05:28:06;;;;;;;11.87;4.80;;;;;;;24.77;54.44;94267.47;5075981;28;20922;-75
2021/05/02 05:30:32;;;;;;;9.63;5.13;;;;;;;24.71;55.28;94293.38;5057029;28;20461;-75
2021/05/02 05:33:03;;;;;;;12.00;6.40;;;;;;;24.21;56.22;94306.28;5076076;28;20447;-77
2021/05/02 05:35:29;;;;;;;13.57;5.20;;;;;;;24.26;56.17;94301.03;5075662;28;20454;-75
2021/05/02 05:37:56;;;;;;;11.43;5.37;;;;;;;24.56;54.00;94295.66;5075877;28;20485;-75
2021/05/02 05:40:24;;;;;;;7.20;4.63;;;;;;;24.82;52.46;94300.59;5075315;28;20450;-75
2021/05/02 05:42:50;;;;;;;12.07;5.47;;;;;;;25.08;52.56;94309.28;5075503;28;20449;-75
2021/05/02 05:45:18;;;;;;;17.13;4.90;;;;;;;24.99;52.95;94306.13;5075424;28;20455;-75
2021/05/02 05:47:45;;;;;;;15.40;5.23;;;;;;;25.00;55.46;94305.09;5074050;28;20462;-79
2021/05/02 05:50:13;;;;;;;12.60;5.43;;;;;;;24.89;55.58;94292.47;5056847;28;20466;-76
2021/05/02 05:52:39;;;;;;;16.83;6.07;;;;;;;25.20;59.09;94297.50;5073499;28;20546;-74
2021/05/02 05:55:07;;;;;;;17.53;5.57;;;;;;;25.45;56.15;94304.50;5075111;28;20451;-74
2021/05/02 05:57:34;;;;;;;13.60;5.83;;;;;;;25.75;56.85;94298.97;5075143;28;20489;-73
2021/05/02 06:00:00;;;;;;;11.90;5.07;;;;;;;26.10;59.74;94301.53;5075261;28;20491;-74
2021/05/02 06:02:26;;;;;;;8.93;5.83;;;;;;;26.50;54.87;94306.84;5075066;28;20796;-74
2021/05/02 06:04:53;;;;;;;12.23;5.83;;;;;;;26.75;57.64;94303.78;5075403;28;20448;-74
2021/05/02 06:07:19;;;;;;;13.90;5.40;;;;;;;27.08;54.79;94319.16;5075159;28;20471;-73
2021/05/02 06:09:46;;;;;;;20.27;7.23;;;;;;;27.12;58.04;94307.63;5075133;28;20501;-77
2021/05/02 06:12:12;;;;;;;20.10;6.30;;;;;;;26.95;52.70;94298.72;5076494;28;21216;-78
2021/05/02 06:14:39;;;;;;;10.87;5.00;;;;;;;26.84;54.94;94296.91;5075593;28;20429;-79
2021/05/02 06:17:06;;;;;;;8.90;5.40;;;;;;;26.68;51.28;94305.81;5040487;28;20550;-78
2021/05/02 06:19:32;;;;;;;18.07;6.37;;;;;;;26.51;53.02;94295.84;5075815;28;20433;-78
2021/05/02 06:21:59;;;;;;;18.97;7.80;;;;;;;26.31;65.49;94297.31;5075842;28;20436;-79
2021/05/02 06:24:25;;;;;;;14.47;6.63;;;;;;;26.22;60.35;94299.59;5075325;28;20889;-79
2021/05/02 06:26:51;;;;;;;14.47;6.23;;;;;;;26.15;65.92;94315.88;5075639;28;20452;-78
2021/05/02 06:29:18;;;;;;;17.60;7.50;;;;;;;26.13;58.69;94309.13;5075220;28;20907;-79
2021/05/02 06:31:45;;;;;;;15.10;7.00;;;;;;;25.91;60.73;94293.63;5057134;28;20440;-79
2021/05/02 06:34:12;;;;;;;17.90;6.67;;;;;;;25.66;63.75;94292.28;5074330;28;20448;-79
2021/05/02 06:36:40;;;;;;;13.97;7.03;;;;;;;25.79;68.72;94311.69;5075740;28;20431;-78
2021/05/02 06:39:07;;;;;;;12.27;6.17;;;;;;;25.89;59.60;94327.19;5075363;28;20927;-79
2021/05/02 06:41:34;;;;;;;10.87;6.00;;;;;;;25.88;57.63;94310.25;5074854;28;20452;-79
2021/05/02 06:47:23;;;;;;;14.80;6.80;;;;;;;26.02;56.13;94301.88;5053503;28;20996;-78
2021/05/02 06:49:50;;;;;;;9.03;5.60;;;;;;;26.50;55.28;94304.16;5062650;28;20444;-77
2021/05/02 06:52:17;;;;;;;12.93;5.63;;;;;;;26.89;52.05;94309.63;5073648;28;20491;-73
2021/05/02 06:54:43;;;;;;;12.57;5.23;;;;;;;27.16;53.16;94316.03;5074201;28;20449;-76
2021/05/02 06:57:09;;;;;;;9.30;5.37;;;;;;;27.11;49.42;94302.47;5074188;28;20487;-74
2021/05/02 06:59:36;;;;;;;12.57;6.30;;;;;;;26.97;51.28;94291.22;5074212;28;20441;-74
2021/05/02 07:02:02;;;;;;;12.73;5.30;;;;;;;26.89;51.89;94283.56;5074165;28;20832;-73
2021/05/02 07:04:33;;;;;;;8.83;5.60;;;;;;;26.85;48.20;94287.78;5073457;28;20453;-74
2021/05/02 07:07:00;;;;;;;8.73;5.33;;;;;;;26.69;50.35;94305.56;5074015;28;20964;-73
2021/05/02 07:09:26;;;;;;;21.17;7.33;;;;;;;26.74;53.48;94308.34;5074039;28;20436;-73
2021/05/02 07:11:53;;;;;;;12.73;5.63;;;;;;;26.90;50.99;94316.69;5074861;28;20508;-77
2021/05/02 07:14:19;;;;;;;12.17;5.50;;;;;;;26.80;46.92;94290.41;5074325;28;20464;-76
2021/05/02 07:16:45;;;;;;;14.27;5.83;;;;;;;26.76;49.07;94289.25;5074552;28;20459;-77
2021/05/02 07:19:15;;;;;;;13.70;5.93;;;;;;;26.76;47.34;94316.19;5073689;28;20445;-73
2021/05/02 07:21:42;;;;;;;12.80;5.50;;;;;;;26.74;47.33;94329.88;5073686;28;20448;-73
2021/05/02 07:24:09;;;;;;;10.60;5.67;;;;;;;26.41;48.79;94319.91;5073621;28;20883;-73
2021/05/02 07:26:36;;;;;;;15.27;6.70;;;;;;;26.09;48.81;94308.78;5073398;28;20449;-73
2021/05/02 07:29:02;;;;;;;11.13;6.13;;;;;;;25.88;50.05;94334.44;5038161;28;20463;-73
2021/05/02 07:31:28;;;;;;;18.07;5.90;;;;;;;25.82;50.22;94342.66;5073501;28;20468;-73
2021/05/02 07:33:55;;;;;;;19.07;7.03;;;;;;;25.67;51.83;94350.38;5073573;28;20531;-74
2021/05/02 07:36:21;;;;;;;17.80;5.50;;;;;;;25.43;49.83;94346.88;5072753;28;20452;-73
2021/05/02 07:38:48;;;;;;;10.43;5.50;;;;;;;24.91;51.49;94336.81;5073143;28;20536;-72
2021/05/02 07:41:14;;;;;;;19.73;5.50;;;;;;;24.90;52.54;94342.41;5073266;28;20457;-73
2021/05/02 07:43:41;;;;;;;12.47;6.67;;;;;;;24.95;56.38;94361.31;5072814;28;20470;-73
2021/05/02 07:46:08;;;;;;;13.03;6.90;;;;;;;25.36;74.43;94357.75;5054965;28;20447;-77
2021/05/02 07:48:35;;;;;;;18.60;6.40;;;;;;;25.53;67.21;94355.16;5038911;28;20522;-77
2021/05/02 07:51:02;;;;;;;12.93;6.67;;;;;;;25.91;65.14;94354.66;5074244;28;20463;-76
2021/05/02 07:53:28;;;;;;;17.20;6.20;;;;;;;26.19;57.79;94386.16;5074392;28;20846;-77
2021/05/02 07:55:56;;;;;;;16.90;6.10;;;;;;;26.42;57.67;94363.75;5073644;28;20455;-80
2021/05/02 07:58:22;;;;;;;14.27;5.40;;;;;;;26.65;56.17;94373.59;5073965;28;20964;-77
2021/05/02 08:00:48;;;;;;;13.40;5.57;;;;;;;26.77;56.67;94371.66;5073539;28;20456;-77
2021/05/02 08:03:15;;;;;;;8.07;4.30;;;;;;;26.84;52.97;94365.03;5060427;28;20476;-78
2021/05/02 08:05:41;;;;;;;10.67;5.50;;;;;;;26.94;51.25;94372.50;5054021;28;20448;-77
2021/05/02 08:08:07;;;;;;;10.93;6.10;;;;;;;27.01;54.37;94365.09;5053588;28;20491;-77
2021/05/02 08:10:34;;;;;;;13.27;5.23;;;;;;;27.14;49.11;94370.16;5053193;28;20486;-73
2021/05/02 08:13:01;;;;;;;17.13;6.27;;;;;;;27.11;47.60;94359.06;5052743;28;20910;-73
2021/05/02 08:15:28;;;;;;;13.73;5.57;;;;;;;26.84;47.29;94340.81;5073037;28;20452;-73
2021/05/02 08:17:56;;;;;;;14.27;6.30;;;;;;;26.66;48.64;94359.09;5077831;28;20489;-73
2021/05/02 08:20:23;;;;;;;9.90;5.67;;;;;;;26.49;48.18;94359.84;5052598;28;20445;-73
2021/05/02 08:22:49;;;;;;;11.37;5.27;;;;;;;26.06;50.09;94362.22;5036084;28;20446;-73
2021/05/02 08:25:15;;;;;;;12.77;5.40;;;;;;;26.04;51.40;94364.34;5080710;28;20448;-73
2021/05/02 08:27:43;;;;;;;16.27;5.80;;;;;;;26.07;48.86;94361.19;5074727;28;20460;-73
2021/05/02 08:30:12;;;;;;;13.13;5.33;;;;;;;26.06;50.55;94368.44;5063911;28;20452;-73
2021/05/02 08:32:38;;;;;;;15.97;6.50;;;;;;;26.09;50.24;94373.31;5078877;28;20939;-73
2021/05/02 08:35:06;;;;;;;16.80;6.13;;;;;;;26.07;51.10;94378.13;5074171;28;20452;-73
2021/05/02 08:37:33;;;;;;;15.27;5.90;;;;;;;26.09;51.00;94373.31;5077924;28;20553;-73
2021/05/02 08:39:59;;;;;;;12.73;4.80;;;;;;;26.05;51.91;94366.78;5036621;28;20451;-74
2021/05/02 08:42:25;;;;;;;16.27;6.93;;;;;;;26.14;52.01;94370.72;5082605;28;20459;-72
2021/05/02 08:44:53;;;;;;;15.80;5.63;;;;;;;26.32;53.15;94375.13;5092616;28;20500;-73
2021/05/02 08:47:20;;;;;;;8.53;5.27;;;;;;;26.29;50.85;94364.00;5069710;28;20448;-74
2021/05/02 08:49:46;;;;;;;13.60;7.57;;;;;;;26.47;52.23;94366.53;5071225;28;20983;-73
2021/05/02 08:52:13;;;;;;;13.73;5.47;;;;;;;26.40;50.14;94371.25;5072169;28;20460;-73
2021/05/02 08:54:39;;;;;;;18.17;6.00;;;;;;;26.40;51.85;94372.06;5072169;28;20951;-73
2021/05/02 08:57:06;;;;;;;10.70;6.30;;;;;;;26.06;50.74;94364.91;5074205;28;20553;-73
2021/05/02 08:59:32;;;;;;;11.40;5.33;;;;;;;25.87;51.27;94357.00;5076373;28;20880;-74
2021/05/02 09:01:59;;;;;;;10.83;6.40;;;;;;;25.76;51.93;94360.56;5076368;28;20451;-73
2021/05/02 09:04:26;;;;;;;17.83;4.77;;;;;;;25.62;50.73;94356.44;5076518;28;20448;-73
2021/05/02 09:06:52;;;;;;;17.10;7.27;;;;;;;25.56;51.75;94349.31;5076163;28;20770;-74
2021/05/02 09:09:19;;;;;;;12.10;5.33;;;;;;;25.89;51.73;94338.75;5076329;28;20845;-74
2021/05/02 09:11:47;;;;;;;10.97;4.80;;;;;;;26.20;50.16;94326.72;5076342;28;20480;-73
2021/05/02 09:14:27;;;;;;;20.47;5.90;;;;;;;26.61;50.59;94330.22;5075330;28;20537;-73
2021/05/02 09:16:55;;;;;;;9.27;4.93;;;;;;;26.91;51.00;94323.69;5075134;28;20452;-74
2021/05/02 09:19:23;;;;;;;14.47;5.07;;;;;;;27.23;46.74;94326.66;5075414;28;20527;-73
2021/05/02 09:21:51;;;;;;;9.57;5.43;;;;;;;27.59;44.67;94309.09;5056262;28;20425;-73
2021/05/02 09:24:26;;;;;;;14.60;4.87;;;;;;;27.88;38.20;94307.06;5075165;28;20451;-73
2021/05/02 09:27:04;;;;;;;12.03;4.17;;;;;;;28.13;35.77;94301.16;5075132;28;20440;-73
2021/05/02 09:29:31;;;;;;;29.67;5.70;;;;;;;28.40;37.84;94298.50;5075065;28;20440;-73
2021/05/02 09:31:58;;;;;;;19.63;4.50;;;;;;;28.71;36.95;94295.03;5074845;28;20448;-74
2021/05/02 09:34:25;;;;;;;13.10;5.27;;;;;;;28.96;36.30;94297.16;5074765;28;20448;-74
2021/05/02 09:36:55;;;;;;;11.27;4.50;;;;;;;29.19;34.91;94296.75;5055934;28;20438;-73
2021/05/02 09:39:46;;;;;;;13.60;4.20;;;;;;;29.40;35.86;94297.72;5074771;28;20852;-74
2021/05/02 09:42:16;;;;;;;18.00;4.80;;;;;;;29.57;33.98;94305.69;5074671;28;20453;-73
2021/05/02 09:44:45;;;;;;;13.40;4.30;;;;;;;29.71;33.68;94304.13;5074539;28;20932;-73
2021/05/02 09:47:23;;;;;;;16.67;5.13;;;;;;;29.75;34.28;94296.31;5074789;28;20780;-74
2021/05/02 09:50:04;;;;;;;16.13;5.20;;;;;;;29.59;34.26;94282.72;5074517;28;20955;-74
2021/05/02 09:52:49;;;;;;;15.00;4.10;;;;;;;29.45;33.19;94278.84;5074537;28;20436;-73
2021/05/02 09:55:26;;;;;;;11.93;4.30;;;;;;;29.40;32.81;94286.09;5074694;28;20441;-74
2021/05/02 09:58:06;;;;;;;18.90;5.33;;;;;;;29.42;33.69;94268.53;5074483;28;20567;-73
2021/05/02 10:00:35;;;;;;;18.53;4.70;;;;;;;29.43;32.44;94261.22;5074424;28;20502;-73
2021/05/02 10:03:06;;;;;;;21.40;5.00;;;;;;;29.43;33.11;94263.94;5074367;28;20494;-73
2021/05/02 10:05:34;;;;;;;16.07;5.17;;;;;;;29.45;33.50;94251.81;5074446;28;20526;-73
2021/05/02 10:08:02;;;;;;;18.33;4.60;;;;;;;29.48;32.87;94259.38;5073365;28;20531;-73
2021/05/02 10:10:29;;;;;;;18.27;5.30;;;;;;;29.49;33.26;94269.16;5074055;28;20811;-73
2021/05/02 10:12:56;;;;;;;18.00;4.40;;;;;;;29.53;32.91;94254.03;5074204;28;20441;-73
2021/05/02 10:15:24;;;;;;;13.07;4.67;;;;;;;29.56;33.03;94248.09;5074242;28;20483;-73
2021/05/02 10:17:51;;;;;;;13.60;5.30;;;;;;;29.68;32.82;94249.75;5038516;28;20507;-73
2021/05/02 10:20:19;;;;;;;13.30;4.37;;;;;;;29.70;32.26;94247.59;5074285;28;20432;-74
2021/05/02 10:22:46;;;;;;;17.03;6.93;;;;;;;29.73;32.60;94253.28;5074133;28;20452;-73
2021/05/02 10:25:14;;;;;;;19.20;4.30;;;;;;;29.81;30.94;94244.69;5073879;28;20466;-73
2021/05/02 10:27:43;;;;;;;12.97;4.07;;;;;;;29.87;31.09;94250.91;5073832;28;20535;-74
2021/05/02 10:30:10;;;;;;;8.60;3.60;;;;;;;29.87;31.09;94234.69;5073844;28;20511;-74
2021/05/02 10:32:38;;;;;;;11.27;5.07;;;;;;;29.86;30.63;94239.28;5038487;28;20843;-74
2021/05/02 10:35:10;;;;;;;10.10;4.90;;;;;;;29.82;30.34;94246.31;5054788;28;20436;-74
2021/05/02 10:37:38;;;;;;;15.30;5.43;;;;;;;29.69;30.38;94248.69;5073839;28;20500;-74
2021/05/02 10:40:12;;;;;;;12.77;4.20;;;;;;;29.75;32.36;94255.72;5073594;28;20445;-74
2021/05/02 10:42:50;;;;;;;12.90;4.43;;;;;;;29.82;31.02;94246.31;5073703;28;20445;-74
2021/05/02 10:45:49;;;;;;;14.80;4.57;;;;;;;29.91;30.27;94247.41;5073871;28;20432;-74
2021/05/02 10:48:48;;;;;;;8.50;4.07;;;;;;;29.96;30.51;94253.91;5031186;28;20454;-74
2021/05/02 10:51:25;;;;;;;14.80;5.20;;;;;;;29.85;30.58;94250.38;5031150;28;20443;-74
2021/05/02 10:54:07;;;;;;;16.40;3.67;;;;;;;29.91;31.92;94249.31;5031425;28;20450;-74
2021/05/02 10:56:53;;;;;;;15.17;3.90;;;;;;;29.88;30.25;94233.59;5031063;28;20844;-74
2021/05/02 10:59:22;;;;;;;6.43;3.43;;;;;;;29.85;30.54;94234.16;5031023;28;20493;-74
2021/05/02 11:01:49;;;;;;;11.87;5.60;;;;;;;29.88;31.47;94237.13;5031023;28;20858;-74
2021/05/02 11:04:15;;;;;;;12.73;3.10;;;;;;;29.93;31.14;94230.91;4997844;28;20438;-74
2021/05/02 11:06:55;;;;;;;12.20;3.57;;;;;;;29.85;30.03;94218.72;5030738;28;21021;-74
2021/05/02 11:09:29;;;;;;;10.27;4.73;;;;;;;29.86;31.62;94214.94;5030733;28;20872;-74
2021/05/02 11:11:58;;;;;;;12.47;4.03;;;;;;;29.80;30.51;94204.38;5030451;28;20478;-74
2021/05/02 11:14:35;;;;;;;11.27;3.60;;;;;;;29.89;30.35;94213.59;5030890;28;20451;-74
2021/05/02 11:17:25;;;;;;;22.40;4.50;;;;;;;29.96;29.23;94216.03;5030442;28;20953;-74
2021/05/02 11:19:54;;;;;;;16.50;4.07;;;;;;;30.06;30.01;94210.66;5064217;28;20828;-73
2021/05/02 11:22:21;;;;;;;5.07;3.27;;;;;;;30.13;30.58;94217.47;5054161;28;20425;-74
2021/05/02 11:24:59;;;;;;;18.07;4.13;;;;;;;30.15;29.01;94212.59;5038006;28;20456;-74
2021/05/02 11:27:43;;;;;;;11.77;4.97;;;;;;;30.14;30.43;94216.38;5072848;28;20534;-74
2021/05/02 11:30:26;;;;;;;15.40;4.43;;;;;;;30.15;28.65;94207.19;5073195;28;20437;-73
2021/05/02 11:32:55;;;;;;;20.47;4.00;;;;;;;30.15;28.29;94196.38;5030115;28;20454;-74
2021/05/02 11:35:40;;;;;;;17.80;4.10;;;;;;;29.94;27.67;94186.53;5030347;28;20482;-73
2021/05/02 11:38:07;;;;;;;9.33;4.17;;;;;;;29.81;29.13;94185.16;5029953;28;21044;-74